sensor_id;sensor_type;location;lat;lon;timestamp;pressure;altitude;pressure_sealevel;temperature;humidity
2339;BME280;1180;51.438;6.978;2023-11-21T00:01:02;99744.97;;;11.52;94.99
2339;BME280;1180;51.438;6.978;2023-11-21T00:03:30;99748.38;;;11.52;95.10
2339;BME280;1180;51.438;6.978;2023-11-21T00:05:55;99737.97;;;11.54;94.75
2339;BME280;1180;51.438;6.978;2023-11-21T00:08:21;99741.59;;;11.51;95.13
2339;BME280;1180;51.438;6.978;2023-11-21T00:10:47;99746.50;;;11.54;95.63
2339;BME280;1180;51.438;6.978;2023-11-21T00:13:13;99743.09;;;11.54;95.27
2339;BME280;1180;51.438;6.978;2023-11-21T00:15:39;99739.47;;;11.45;95.72
2339;BME280;1180;51.438;6.978;2023-11-21T00:18:06;99745.53;;;11.44;95.66
2339;BME280;1180;51.438;6.978;2023-11-21T00:20:31;99741.09;;;11.46;95.69
2339;BME280;1180;51.438;6.978;2023-11-21T00:22:57;99743.53;;;11.48;95.67
2339;BME280;1180;51.438;6.978;2023-11-21T00:25:23;99755.22;;;11.52;95.42
2339;BME280;1180;51.438;6.978;2023-11-21T00:27:50;99754.22;;;11.54;94.48
2339;BME280;1180;51.438;6.978;2023-11-21T00:30:16;99756.13;;;11.64;94.18
2339;BME280;1180;51.438;6.978;2023-11-21T00:32:41;99760.88;;;11.57;94.39
2339;BME280;1180;51.438;6.978;2023-11-21T00:35:07;99765.97;;;11.46;94.76
2339;BME280;1180;51.438;6.978;2023-11-21T00:37:33;99772.72;;;11.47;95.04
2339;BME280;1180;51.438;6.978;2023-11-21T00:39:59;99763.38;;;11.46;95.47
2339;BME280;1180;51.438;6.978;2023-11-21T00:42:25;99769.00;;;11.51;94.97
2339;BME280;1180;51.438;6.978;2023-11-21T00:44:50;99771.13;;;11.57;95.31
2339;BME280;1180;51.438;6.978;2023-11-21T00:47:16;99761.56;;;11.59;95.09
2339;BME280;1180;51.438;6.978;2023-11-21T00:49:42;99758.69;;;11.64;95.57
2339;BME280;1180;51.438;6.978;2023-11-21T00:52:09;99761.97;;;11.66;95.75
2339;BME280;1180;51.438;6.978;2023-11-21T00:54:35;99756.72;;;11.67;95.74
2339;BME280;1180;51.438;6.978;2023-11-21T00:57:01;99762.09;;;11.64;95.69
2339;BME280;1180;51.438;6.978;2023-11-21T00:59:27;99763.94;;;11.62;95.69
2339;BME280;1180;51.438;6.978;2023-11-21T01:01:53;99756.59;;;11.69;96.44
2339;BME280;1180;51.438;6.978;2023-11-21T01:04:19;99760.25;;;11.78;95.75
2339;BME280;1180;51.438;6.978;2023-11-21T01:06:45;99763.22;;;11.84;95.71
2339;BME280;1180;51.438;6.978;2023-11-21T01:09:11;99760.25;;;11.78;95.72
2339;BME280;1180;51.438;6.978;2023-11-21T01:11:38;99770.09;;;11.84;95.55
2339;BME280;1180;51.438;6.978;2023-11-21T01:14:04;99763.22;;;11.84;95.73
2339;BME280;1180;51.438;6.978;2023-11-21T01:16:30;99767.97;;;11.78;95.64
2339;BME280;1180;51.438;6.978;2023-11-21T01:18:59;99773.13;;;11.78;95.57
2339;BME280;1180;51.438;6.978;2023-11-21T01:21:25;99776.84;;;11.74;95.79
2339;BME280;1180;51.438;6.978;2023-11-21T01:23:51;99779.81;;;11.80;95.15
2339;BME280;1180;51.438;6.978;2023-11-21T01:26:17;99780.94;;;11.76;95.30
2339;BME280;1180;51.438;6.978;2023-11-21T01:28:42;99781.66;;;11.78;95.34
2339;BME280;1180;51.438;6.978;2023-11-21T01:31:08;99781.91;;;11.87;95.28
2339;BME280;1180;51.438;6.978;2023-11-21T01:33:34;99787.16;;;11.85;95.13
2339;BME280;1180;51.438;6.978;2023-11-21T01:36:01;99783.44;;;11.89;95.16
2339;BME280;1180;51.438;6.978;2023-11-21T01:38:26;99791.66;;;11.94;94.78
2339;BME280;1180;51.438;6.978;2023-11-21T01:40:52;99782.88;;;11.97;94.39
2339;BME280;1180;51.438;6.978;2023-11-21T01:43:18;99784.25;;;11.90;94.76
2339;BME280;1180;51.438;6.978;2023-11-21T01:45:44;99789.28;;;11.91;94.97
2339;BME280;1180;51.438;6.978;2023-11-21T01:48:13;99792.44;;;11.83;95.33
2339;BME280;1180;51.438;6.978;2023-11-21T01:50:40;99792.44;;;11.83;95.89
2339;BME280;1180;51.438;6.978;2023-11-21T01:53:05;99791.72;;;11.81;95.81
2339;BME280;1180;51.438;6.978;2023-11-21T01:55:32;99794.38;;;11.80;95.89
2339;BME280;1180;51.438;6.978;2023-11-21T01:57:59;99789.84;;;11.83;96.14
2339;BME280;1180;51.438;6.978;2023-11-21T02:00:25;99795.00;;;11.83;96.25
2339;BME280;1180;51.438;6.978;2023-11-21T02:02:53;99799.31;;;11.83;96.16
2339;BME280;1180;51.438;6.978;2023-11-21T02:05:20;99798.84;;;11.89;95.61
2339;BME280;1180;51.438;6.978;2023-11-21T02:07:47;99800.13;;;11.83;95.37
2339;BME280;1180;51.438;6.978;2023-11-21T02:10:18;99802.81;;;11.82;95.67
2339;BME280;1180;51.438;6.978;2023-11-21T02:12:48;99802.94;;;11.80;96.05
2339;BME280;1180;51.438;6.978;2023-11-21T02:15:18;99807.16;;;11.81;96.04
2339;BME280;1180;51.438;6.978;2023-11-21T02:17:47;99804.78;;;11.78;95.37
2339;BME280;1180;51.438;6.978;2023-11-21T02:20:17;99807.47;;;11.77;95.27
2339;BME280;1180;51.438;6.978;2023-11-21T02:22:50;99806.31;;;11.81;95.90
2339;BME280;1180;51.438;6.978;2023-11-21T02:25:37;99806.00;;;11.85;95.26
2339;BME280;1180;51.438;6.978;2023-11-21T02:28:03;99819.44;;;11.89;95.25
2339;BME280;1180;51.438;6.978;2023-11-21T02:30:29;99818.00;;;11.85;95.02
2339;BME280;1180;51.438;6.978;2023-11-21T02:32:59;99820.00;;;11.81;95.42
2339;BME280;1180;51.438;6.978;2023-11-21T02:35:24;99822.56;;;11.81;95.66
2339;BME280;1180;51.438;6.978;2023-11-21T02:37:51;99825.38;;;11.78;95.37
2339;BME280;1180;51.438;6.978;2023-11-21T02:40:17;99819.16;;;11.81;95.55
2339;BME280;1180;51.438;6.978;2023-11-21T02:42:44;99817.66;;;11.78;95.76
2339;BME280;1180;51.438;6.978;2023-11-21T02:45:10;99821.03;;;11.79;95.55
2339;BME280;1180;51.438;6.978;2023-11-21T02:47:38;99822.78;;;11.78;95.53
2339;BME280;1180;51.438;6.978;2023-11-21T02:50:04;99825.84;;;11.83;95.06
2339;BME280;1180;51.438;6.978;2023-11-21T02:52:31;99830.88;;;11.85;95.46
2339;BME280;1180;51.438;6.978;2023-11-21T02:54:58;99834.59;;;11.81;94.76
2339;BME280;1180;51.438;6.978;2023-11-21T02:57:24;99830.38;;;11.80;95.17
2339;BME280;1180;51.438;6.978;2023-11-21T02:59:50;99839.41;;;11.85;95.21
2339;BME280;1180;51.438;6.978;2023-11-21T03:02:16;99833.22;;;11.88;94.45
2339;BME280;1180;51.438;6.978;2023-11-21T03:04:42;99837.19;;;11.92;94.39
2339;BME280;1180;51.438;6.978;2023-11-21T03:07:09;99841.63;;;11.90;94.47
2339;BME280;1180;51.438;6.978;2023-11-21T03:09:35;99842.69;;;11.88;94.21
2339;BME280;1180;51.438;6.978;2023-11-21T03:12:01;99840.00;;;11.89;94.30
2339;BME280;1180;51.438;6.978;2023-11-21T03:14:27;99838.25;;;11.90;93.79
2339;BME280;1180;51.438;6.978;2023-11-21T03:16:53;99838.75;;;11.95;93.61
2339;BME280;1180;51.438;6.978;2023-11-21T03:19:19;99840.09;;;12.01;93.05
2339;BME280;1180;51.438;6.978;2023-11-21T03:21:45;99841.00;;;11.99;92.63
2339;BME280;1180;51.438;6.978;2023-11-21T03:24:10;99839.34;;;11.98;91.99
2339;BME280;1180;51.438;6.978;2023-11-21T03:26:36;99843.47;;;12.01;92.60
2339;BME280;1180;51.438;6.978;2023-11-21T03:29:03;99842.97;;;11.96;92.07
2339;BME280;1180;51.438;6.978;2023-11-21T03:31:30;99851.22;;;11.88;92.67
2339;BME280;1180;51.438;6.978;2023-11-21T03:33:56;99856.34;;;11.88;93.23
2339;BME280;1180;51.438;6.978;2023-11-21T03:36:22;99856.75;;;11.95;91.96
2339;BME280;1180;51.438;6.978;2023-11-21T03:38:48;99865.84;;;11.88;92.00
2339;BME280;1180;51.438;6.978;2023-11-21T03:41:15;99868.50;;;11.86;92.30
2339;BME280;1180;51.438;6.978;2023-11-21T03:43:41;99872.72;;;11.87;92.71
2339;BME280;1180;51.438;6.978;2023-11-21T03:46:06;99880.88;;;11.81;92.89
2339;BME280;1180;51.438;6.978;2023-11-21T03:48:32;99884.97;;;11.83;92.70
2339;BME280;1180;51.438;6.978;2023-11-21T03:50:58;99877.50;;;11.80;92.79
2339;BME280;1180;51.438;6.978;2023-11-21T03:53:24;99880.16;;;11.79;92.92
2339;BME280;1180;51.438;6.978;2023-11-21T03:55:50;99889.63;;;11.78;93.00
2339;BME280;1180;51.438;6.978;2023-11-21T03:58:16;99890.44;;;11.79;93.15
2339;BME280;1180;51.438;6.978;2023-11-21T04:00:42;99887.34;;;11.87;92.57
2339;BME280;1180;51.438;6.978;2023-11-21T04:03:08;99887.22;;;11.88;92.68
2339;BME280;1180;51.438;6.978;2023-11-21T04:05:33;99895.63;;;11.90;92.08
2339;BME280;1180;51.438;6.978;2023-11-21T04:07:59;99890.63;;;11.89;92.17
2339;BME280;1180;51.438;6.978;2023-11-21T04:10:25;99895.63;;;11.90;91.83
2339;BME280;1180;51.438;6.978;2023-11-21T04:12:51;99894.50;;;11.94;91.53
2339;BME280;1180;51.438;6.978;2023-11-21T04:15:16;99891.41;;;11.89;91.64
2339;BME280;1180;51.438;6.978;2023-11-21T04:17:42;99887.34;;;11.87;91.38
2339;BME280;1180;51.438;6.978;2023-11-21T04:20:09;99893.72;;;11.81;91.32
2339;BME280;1180;51.438;6.978;2023-11-21T04:22:41;99895.78;;;11.76;92.14
2339;BME280;1180;51.438;6.978;2023-11-21T04:25:10;99902.09;;;11.72;91.88
2339;BME280;1180;51.438;6.978;2023-11-21T04:27:36;99900.53;;;11.69;92.65
2339;BME280;1180;51.438;6.978;2023-11-21T04:30:03;99896.94;;;11.72;93.13
2339;BME280;1180;51.438;6.978;2023-11-21T04:32:29;99899.16;;;11.76;92.78
2339;BME280;1180;51.438;6.978;2023-11-21T04:34:54;99904.00;;;11.81;92.12
2339;BME280;1180;51.438;6.978;2023-11-21T04:37:20;99904.22;;;11.78;92.40
2339;BME280;1180;51.438;6.978;2023-11-21T04:39:46;99912.38;;;11.72;92.38
2339;BME280;1180;51.438;6.978;2023-11-21T04:42:12;99906.50;;;11.69;92.46
2339;BME280;1180;51.438;6.978;2023-11-21T04:44:38;99903.00;;;11.70;92.70
2339;BME280;1180;51.438;6.978;2023-11-21T04:47:06;99906.38;;;11.71;93.18
2339;BME280;1180;51.438;6.978;2023-11-21T04:49:33;99908.66;;;11.76;92.37
2339;BME280;1180;51.438;6.978;2023-11-21T04:51:59;99918.22;;;11.74;92.31
2339;BME280;1180;51.438;6.978;2023-11-21T04:54:25;99911.31;;;11.74;92.33
2339;BME280;1180;51.438;6.978;2023-11-21T04:56:50;99916.78;;;11.69;92.87
2339;BME280;1180;51.438;6.978;2023-11-21T04:59:16;99918.66;;;11.67;93.08
2339;BME280;1180;51.438;6.978;2023-11-21T05:01:42;99927.50;;;11.63;93.49
2339;BME280;1180;51.438;6.978;2023-11-21T05:04:08;99935.72;;;11.68;93.60
2339;BME280;1180;51.438;6.978;2023-11-21T05:06:34;99926.63;;;11.76;93.42
2339;BME280;1180;51.438;6.978;2023-11-21T05:09:00;99932.00;;;11.73;93.63
2339;BME280;1180;51.438;6.978;2023-11-21T05:11:27;99927.88;;;11.70;93.83
2339;BME280;1180;51.438;6.978;2023-11-21T05:13:52;99936.53;;;11.69;94.23
2339;BME280;1180;51.438;6.978;2023-11-21T05:16:19;99933.72;;;11.72;94.13
2339;BME280;1180;51.438;6.978;2023-11-21T05:18:45;99933.84;;;11.70;94.07
2339;BME280;1180;51.438;6.978;2023-11-21T05:21:12;99936.31;;;11.72;94.19
2339;BME280;1180;51.438;6.978;2023-11-21T05:23:38;99937.41;;;11.81;93.64
2339;BME280;1180;51.438;6.978;2023-11-21T05:26:03;99941.84;;;11.79;93.98
2339;BME280;1180;51.438;6.978;2023-11-21T05:28:29;99939.19;;;11.80;93.39
2339;BME280;1180;51.438;6.978;2023-11-21T05:30:54;99943.28;;;11.83;93.37
2339;BME280;1180;51.438;6.978;2023-11-21T05:33:21;99953.56;;;11.83;93.65
2339;BME280;1180;51.438;6.978;2023-11-21T05:35:46;99954.41;;;11.83;93.73
2339;BME280;1180;51.438;6.978;2023-11-21T05:38:14;99959.41;;;11.85;93.51
2339;BME280;1180;51.438;6.978;2023-11-21T05:40:40;99966.53;;;11.81;93.67
2339;BME280;1180;51.438;6.978;2023-11-21T05:43:06;99967.06;;;11.74;93.92
2339;BME280;1180;51.438;6.978;2023-11-21T05:45:32;99971.56;;;11.83;93.77
2339;BME280;1180;51.438;6.978;2023-11-21T05:47:58;99971.78;;;11.80;93.47
2339;BME280;1180;51.438;6.978;2023-11-21T05:50:24;99974.56;;;11.77;93.92
2339;BME280;1180;51.438;6.978;2023-11-21T05:52:50;99981.66;;;11.73;93.96
2339;BME280;1180;51.438;6.978;2023-11-21T05:55:16;99980.94;;;11.71;94.03
2339;BME280;1180;51.438;6.978;2023-11-21T05:57:43;99991.94;;;11.73;94.62
2339;BME280;1180;51.438;6.978;2023-11-21T06:00:14;99991.22;;;11.71;94.90
2339;BME280;1180;51.438;6.978;2023-11-21T06:02:53;99996.34;;;11.71;94.50
2339;BME280;1180;51.438;6.978;2023-11-21T06:05:20;99996.97;;;11.75;94.94
2339;BME280;1180;51.438;6.978;2023-11-21T06:07:49;99997.91;;;11.74;94.47
2339;BME280;1180;51.438;6.978;2023-11-21T06:10:15;100002.94;;;11.75;94.94
2339;BME280;1180;51.438;6.978;2023-11-21T06:12:43;99999.44;;;11.76;94.87
2339;BME280;1180;51.438;6.978;2023-11-21T06:15:10;100009.31;;;11.82;94.64
2339;BME280;1180;51.438;6.978;2023-11-21T06:17:39;100008.59;;;11.80;94.61
2339;BME280;1180;51.438;6.978;2023-11-21T06:20:06;100012.28;;;11.76;94.59
2339;BME280;1180;51.438;6.978;2023-11-21T06:22:39;100018.88;;;11.80;94.91
2339;BME280;1180;51.438;6.978;2023-11-21T06:25:06;100025.56;;;11.83;94.52
2339;BME280;1180;51.438;6.978;2023-11-21T06:27:37;100033.38;;;11.81;94.74
2339;BME280;1180;51.438;6.978;2023-11-21T06:30:04;100033.97;;;11.85;94.70
2339;BME280;1180;51.438;6.978;2023-11-21T06:32:31;100038.09;;;11.88;94.42
2339;BME280;1180;51.438;6.978;2023-11-21T06:34:58;100044.06;;;11.88;94.43
2339;BME280;1180;51.438;6.978;2023-11-21T06:37:28;100036.75;;;11.82;94.88
2339;BME280;1180;51.438;6.978;2023-11-21T06:39:56;100032.53;;;11.81;94.95
2339;BME280;1180;51.438;6.978;2023-11-21T06:42:22;100041.91;;;11.82;95.11
2339;BME280;1180;51.438;6.978;2023-11-21T06:44:49;100046.13;;;11.83;95.39
2339;BME280;1180;51.438;6.978;2023-11-21T06:47:17;100051.38;;;11.81;95.50
2339;BME280;1180;51.438;6.978;2023-11-21T06:49:45;100054.03;;;11.80;95.55
2339;BME280;1180;51.438;6.978;2023-11-21T06:52:13;100058.47;;;11.78;95.50
2339;BME280;1180;51.438;6.978;2023-11-21T06:54:39;100061.88;;;11.78;95.86
2339;BME280;1180;51.438;6.978;2023-11-21T06:57:05;100064.75;;;11.74;95.75
2339;BME280;1180;51.438;6.978;2023-11-21T06:59:31;100078.41;;;11.74;96.49
2339;BME280;1180;51.438;6.978;2023-11-21T07:01:57;100074.41;;;11.83;96.10
2339;BME280;1180;51.438;6.978;2023-11-21T07:04:23;100077.69;;;11.85;96.03
2339;BME280;1180;51.438;6.978;2023-11-21T07:06:49;100082.75;;;11.87;95.99
2339;BME280;1180;51.438;6.978;2023-11-21T07:09:15;100087.56;;;11.91;95.60
2339;BME280;1180;51.438;6.978;2023-11-21T07:11:41;100096.72;;;11.82;95.26
2339;BME280;1180;51.438;6.978;2023-11-21T07:14:07;100101.03;;;11.82;96.11
2339;BME280;1180;51.438;6.978;2023-11-21T07:16:37;100099.19;;;11.84;95.66
2339;BME280;1180;51.438;6.978;2023-11-21T07:19:06;100101.88;;;11.82;95.63
2339;BME280;1180;51.438;6.978;2023-11-21T07:21:33;100111.53;;;11.79;95.51
2339;BME280;1180;51.438;6.978;2023-11-21T07:24:02;100107.53;;;11.75;96.10
2339;BME280;1180;51.438;6.978;2023-11-21T07:26:29;100114.09;;;11.79;96.48
2339;BME280;1180;51.438;6.978;2023-11-21T07:28:55;100111.53;;;11.79;96.56
2339;BME280;1180;51.438;6.978;2023-11-21T07:31:22;100108.53;;;11.85;96.47
2339;BME280;1180;51.438;6.978;2023-11-21T07:33:48;100105.75;;;11.88;96.16
2339;BME280;1180;51.438;6.978;2023-11-21T07:36:14;100105.56;;;11.91;96.26
2339;BME280;1180;51.438;6.978;2023-11-21T07:38:43;100113.25;;;11.91;96.38
2339;BME280;1180;51.438;6.978;2023-11-21T07:41:10;100105.88;;;11.87;96.56
2339;BME280;1180;51.438;6.978;2023-11-21T07:43:36;100106.38;;;11.92;96.39
2339;BME280;1180;51.438;6.978;2023-11-21T07:46:03;100110.69;;;11.91;96.43
2339;BME280;1180;51.438;6.978;2023-11-21T07:48:35;100106.69;;;11.87;96.47
2339;BME280;1180;51.438;6.978;2023-11-21T07:51:02;100109.69;;;11.94;96.22
2339;BME280;1180;51.438;6.978;2023-11-21T07:53:32;100107.41;;;11.89;96.63
2339;BME280;1180;51.438;6.978;2023-11-21T07:56:05;100109.75;;;11.92;96.93
2339;BME280;1180;51.438;6.978;2023-11-21T07:58:30;100117.91;;;11.86;96.92
2339;BME280;1180;51.438;6.978;2023-11-21T08:01:00;100123.56;;;11.91;97.46
2339;BME280;1180;51.438;6.978;2023-11-21T08:03:26;100130.34;;;11.92;96.86
2339;BME280;1180;51.438;6.978;2023-11-21T08:05:52;100139.81;;;11.92;96.94
2339;BME280;1180;51.438;6.978;2023-11-21T08:08:18;100144.88;;;11.93;97.43
2339;BME280;1180;51.438;6.978;2023-11-21T08:10:47;100155.56;;;12.00;97.58
2339;BME280;1180;51.438;6.978;2023-11-21T08:13:13;100162.88;;;12.06;96.61
2339;BME280;1180;51.438;6.978;2023-11-21T08:15:41;100171.09;;;11.98;96.62
2339;BME280;1180;51.438;6.978;2023-11-21T08:18:11;100176.78;;;12.04;96.69
2339;BME280;1180;51.438;6.978;2023-11-21T08:20:38;100176.25;;;11.98;97.04
2339;BME280;1180;51.438;6.978;2023-11-21T08:23:05;100188.94;;;12.02;97.16
2339;BME280;1180;51.438;6.978;2023-11-21T08:25:32;100190.38;;;12.06;97.22
2339;BME280;1180;51.438;6.978;2023-11-21T08:27:58;100199.81;;;12.05;97.47
2339;BME280;1180;51.438;6.978;2023-11-21T08:30:24;100205.81;;;12.06;97.19
2339;BME280;1180;51.438;6.978;2023-11-21T08:32:50;100209.59;;;12.13;96.83
2339;BME280;1180;51.438;6.978;2023-11-21T08:35:18;100209.91;;;12.08;97.10
2339;BME280;1180;51.438;6.978;2023-11-21T08:37:44;100210.22;;;12.04;97.66
2339;BME280;1180;51.438;6.978;2023-11-21T08:40:12;100211.97;;;12.03;98.09
2339;BME280;1180;51.438;6.978;2023-11-21T08:42:42;100215.25;;;12.05;97.86
2339;BME280;1180;51.438;6.978;2023-11-21T08:45:08;100214.94;;;12.10;98.04
2339;BME280;1180;51.438;6.978;2023-11-21T08:47:34;100208.59;;;12.16;97.91
2339;BME280;1180;51.438;6.978;2023-11-21T08:50:02;100204.16;;;12.18;97.27
2339;BME280;1180;51.438;6.978;2023-11-21T08:52:28;100218.47;;;12.22;97.31
2339;BME280;1180;51.438;6.978;2023-11-21T08:54:53;100209.91;;;12.21;97.78
2339;BME280;1180;51.438;6.978;2023-11-21T08:57:25;100211.34;;;12.25;97.70
2339;BME280;1180;51.438;6.978;2023-11-21T08:59:51;100222.28;;;12.29;97.47
2339;BME280;1180;51.438;6.978;2023-11-21T09:02:21;100224.84;;;12.29;97.12
2339;BME280;1180;51.438;6.978;2023-11-21T09:04:48;100227.84;;;12.23;97.54
2339;BME280;1180;51.438;6.978;2023-11-21T09:07:14;100240.28;;;12.29;98.08
2339;BME280;1180;51.438;6.978;2023-11-21T09:09:40;100246.06;;;12.33;97.36
2339;BME280;1180;51.438;6.978;2023-11-21T09:12:06;100245.13;;;12.34;97.46
2339;BME280;1180;51.438;6.978;2023-11-21T09:14:32;100243.16;;;12.37;97.48
2339;BME280;1180;51.438;6.978;2023-11-21T09:16:57;100248.41;;;12.36;97.47
2339;BME280;1180;51.438;6.978;2023-11-21T09:19:23;100246.16;;;12.44;98.03
2339;BME280;1180;51.438;6.978;2023-11-21T09:21:50;100248.94;;;12.41;97.33
2339;BME280;1180;51.438;6.978;2023-11-21T09:24:16;100252.44;;;12.40;97.34
2339;BME280;1180;51.438;6.978;2023-11-21T09:26:41;100258.59;;;12.37;97.53
2339;BME280;1180;51.438;6.978;2023-11-21T09:29:07;100259.44;;;12.38;97.99
2339;BME280;1180;51.438;6.978;2023-11-21T09:31:33;100270.47;;;12.53;97.37
2339;BME280;1180;51.438;6.978;2023-11-21T09:33:59;100265.19;;;12.54;96.44
2339;BME280;1180;51.438;6.978;2023-11-21T09:36:25;100266.53;;;12.47;96.81
2339;BME280;1180;51.438;6.978;2023-11-21T09:38:53;100268.19;;;12.48;96.43
2339;BME280;1180;51.438;6.978;2023-11-21T09:41:32;100273.25;;;12.50;96.69
2339;BME280;1180;51.438;6.978;2023-11-21T09:44:02;100284.47;;;12.49;96.91
2339;BME280;1180;51.438;6.978;2023-11-21T09:46:29;100278.97;;;12.53;97.22
2339;BME280;1180;51.438;6.978;2023-11-21T09:48:59;100271.25;;;12.53;96.26
2339;BME280;1180;51.438;6.978;2023-11-21T09:51:27;100285.59;;;12.45;96.14
2339;BME280;1180;51.438;6.978;2023-11-21T09:53:59;100284.47;;;12.49;96.50
2339;BME280;1180;51.438;6.978;2023-11-21T09:56:27;100278.06;;;12.54;96.24
2339;BME280;1180;51.438;6.978;2023-11-21T09:58:55;100284.63;;;12.59;95.86
2339;BME280;1180;51.438;6.978;2023-11-21T10:01:23;100288.91;;;12.60;96.26
2339;BME280;1180;51.438;6.978;2023-11-21T10:03:50;100289.63;;;12.62;96.11
2339;BME280;1180;51.438;6.978;2023-11-21T10:06:17;100291.97;;;12.65;96.24
2339;BME280;1180;51.438;6.978;2023-11-21T10:08:43;100296.19;;;12.66;96.20
2339;BME280;1180;51.438;6.978;2023-11-21T10:11:10;100299.50;;;12.68;95.75
2339;BME280;1180;51.438;6.978;2023-11-21T10:13:38;100303.00;;;12.80;95.49
2339;BME280;1180;51.438;6.978;2023-11-21T10:16:07;100296.69;;;12.84;94.83
2339;BME280;1180;51.438;6.978;2023-11-21T10:18:37;100298.94;;;12.76;93.68
2339;BME280;1180;51.438;6.978;2023-11-21T10:21:06;100299.28;;;12.71;93.99
2339;BME280;1180;51.438;6.978;2023-11-21T10:23:31;100298.34;;;12.72;94.07
2339;BME280;1180;51.438;6.978;2023-11-21T10:25:57;100291.22;;;12.76;94.20
2339;BME280;1180;51.438;6.978;2023-11-21T10:28:24;100301.44;;;12.77;94.08
2339;BME280;1180;51.438;6.978;2023-11-21T10:30:50;100302.88;;;12.81;94.48
2339;BME280;1180;51.438;6.978;2023-11-21T10:33:16;100297.00;;;12.92;94.24
2339;BME280;1180;51.438;6.978;2023-11-21T10:38:07;100305.84;;;13.01;94.34
2339;BME280;1180;51.438;6.978;2023-11-21T10:40:38;100306.34;;;13.06;94.08
2339;BME280;1180;51.438;6.978;2023-11-21T10:43:08;100311.50;;;13.06;94.05
2339;BME280;1180;51.438;6.978;2023-11-21T10:45:36;100308.72;;;13.09;93.42
2339;BME280;1180;51.438;6.978;2023-11-21T10:48:05;100309.34;;;13.13;92.93
2339;BME280;1180;51.438;6.978;2023-11-21T10:50:34;100324.38;;;13.06;92.70
2339;BME280;1180;51.438;6.978;2023-11-21T10:53:03;100326.34;;;13.03;92.63
2339;BME280;1180;51.438;6.978;2023-11-21T10:55:31;100329.13;;;12.99;93.16
2339;BME280;1180;51.438;6.978;2023-11-21T10:58:06;100327.91;;;13.05;93.41
2339;BME280;1180;51.438;6.978;2023-11-21T11:00:33;100333.34;;;13.13;93.21
2339;BME280;1180;51.438;6.978;2023-11-21T11:03:00;100337.34;;;13.18;93.08
2339;BME280;1180;51.438;6.978;2023-11-21T11:05:28;100335.69;;;13.17;92.88
2339;BME280;1180;51.438;6.978;2023-11-21T11:08:06;100333.63;;;13.22;92.17
2339;BME280;1180;51.438;6.978;2023-11-21T11:10:34;100338.75;;;13.35;92.12
2339;BME280;1180;51.438;6.978;2023-11-21T11:13:00;100347.84;;;13.27;91.58
2339;BME280;1180;51.438;6.978;2023-11-21T11:15:27;100341.56;;;13.19;91.68
2339;BME280;1180;51.438;6.978;2023-11-21T11:17:54;100340.78;;;13.05;92.27
2339;BME280;1180;51.438;6.978;2023-11-21T11:20:25;100343.56;;;12.89;93.87
2339;BME280;1180;51.438;6.978;2023-11-21T11:23:27;100342.00;;;12.99;94.18
2339;BME280;1180;51.438;6.978;2023-11-21T11:28:49;100337.25;;;13.19;92.79
2339;BME280;1180;51.438;6.978;2023-11-21T11:34:56;100339.69;;;13.47;91.32
2339;BME280;1180;51.438;6.978;2023-11-21T11:37:15;100344.53;;;13.51;91.05
2339;BME280;1180;51.438;6.978;2023-11-21T11:39:42;100351.50;;;13.62;90.34
2339;BME280;1180;51.438;6.978;2023-11-21T11:42:13;100344.53;;;13.51;88.79
2339;BME280;1180;51.438;6.978;2023-11-21T11:47:26;100349.88;;;13.61;89.09
2339;BME280;1180;51.438;6.978;2023-11-21T11:50:09;100342.13;;;13.61;89.69
2339;BME280;1180;51.438;6.978;2023-11-21T11:52:43;100344.81;;;13.60;89.48
2339;BME280;1180;51.438;6.978;2023-11-21T11:55:11;100348.84;;;13.51;90.06
2339;BME280;1180;51.438;6.978;2023-11-21T11:57:39;100347.91;;;13.52;90.36
2339;BME280;1180;51.438;6.978;2023-11-21T12:02:39;100360.44;;;13.45;89.52
2339;BME280;1180;51.438;6.978;2023-11-21T12:05:09;100361.53;;;13.41;89.90
2339;BME280;1180;51.438;6.978;2023-11-21T12:10:13;100370.22;;;13.27;90.43
2339;BME280;1180;51.438;6.978;2023-11-21T12:12:43;100371.44;;;13.34;91.67
2339;BME280;1180;51.438;6.978;2023-11-21T12:15:09;100367.25;;;13.46;90.45
2339;BME280;1180;51.438;6.978;2023-11-21T12:17:35;100364.41;;;13.62;90.01
2339;BME280;1180;51.438;6.978;2023-11-21T12:20:03;100365.53;;;13.58;89.69
2339;BME280;1180;51.438;6.978;2023-11-21T12:22:30;100368.78;;;13.23;90.71
2339;BME280;1180;51.438;6.978;2023-11-21T12:24:56;100367.13;;;13.09;91.66
2339;BME280;1180;51.438;6.978;2023-11-21T12:27:21;100365.31;;;12.98;92.02
2339;BME280;1180;51.438;6.978;2023-11-21T12:29:47;100377.06;;;13.02;92.61
2339;BME280;1180;51.438;6.978;2023-11-21T12:32:13;100380.66;;;12.61;94.31
2339;BME280;1180;51.438;6.978;2023-11-21T12:34:40;100387.53;;;12.60;95.84
2339;BME280;1180;51.438;6.978;2023-11-21T12:37:06;100394.13;;;12.64;95.67
2339;BME280;1180;51.438;6.978;2023-11-21T12:39:31;100392.59;;;12.62;95.64
2339;BME280;1180;51.438;6.978;2023-11-21T12:41:57;100395.25;;;12.60;95.40
2339;BME280;1180;51.438;6.978;2023-11-21T12:44:23;100397.81;;;12.47;96.36
2339;BME280;1180;51.438;6.978;2023-11-21T12:46:49;100404.28;;;12.40;97.29
2339;BME280;1180;51.438;6.978;2023-11-21T12:49:15;100404.72;;;12.47;97.57
2339;BME280;1180;51.438;6.978;2023-11-21T12:51:45;100404.88;;;12.31;98.02
2339;BME280;1180;51.438;6.978;2023-11-21T12:54:11;100404.34;;;12.38;98.07
2339;BME280;1180;51.438;6.978;2023-11-21T12:56:41;100405.50;;;12.07;99.59
2339;BME280;1180;51.438;6.978;2023-11-21T12:59:06;100414.09;;;12.20;99.70
2339;BME280;1180;51.438;6.978;2023-11-21T13:01:31;100415.50;;;12.11;100.00
2339;BME280;1180;51.438;6.978;2023-11-21T13:03:57;100412.19;;;12.09;100.00
2339;BME280;1180;51.438;6.978;2023-11-21T13:06:27;100418.91;;;12.12;100.00
2339;BME280;1180;51.438;6.978;2023-11-21T13:08:55;100426.28;;;12.04;100.00
2339;BME280;1180;51.438;6.978;2023-11-21T13:11:22;100426.47;;;11.86;100.00
2339;BME280;1180;51.438;6.978;2023-11-21T13:13:51;100437.00;;;11.96;100.00
2339;BME280;1180;51.438;6.978;2023-11-21T13:16:18;100430.09;;;12.11;100.00
2339;BME280;1180;51.438;6.978;2023-11-21T13:18:45;100440.47;;;12.09;100.00
2339;BME280;1180;51.438;6.978;2023-11-21T13:21:11;100437.25;;;12.20;100.00
2339;BME280;1180;51.438;6.978;2023-11-21T13:23:41;100443.94;;;12.23;100.00
2339;BME280;1180;51.438;6.978;2023-11-21T13:26:07;100445.88;;;12.19;100.00
2339;BME280;1180;51.438;6.978;2023-11-21T13:28:35;100448.88;;;11.98;100.00
2339;BME280;1180;51.438;6.978;2023-11-21T13:31:03;100451.19;;;11.60;100.00